createdAt,value
2019-02-20T00:01:55.438Z,99.90
2019-02-20T00:04:23.934Z,99.90
2019-02-20T00:06:52.517Z,99.90
2019-02-20T00:09:20.997Z,99.90
2019-02-20T00:11:49.461Z,99.90
2019-02-20T00:14:17.957Z,99.90
2019-02-20T00:16:46.429Z,99.90
2019-02-20T00:19:14.913Z,99.90
2019-02-20T00:21:43.392Z,99.90
2019-02-20T00:24:11.872Z,99.90
2019-02-20T00:26:40.349Z,99.90
2019-02-20T00:29:08.837Z,99.90
2019-02-20T00:31:37.359Z,99.90
2019-02-20T00:34:05.854Z,99.90
2019-02-20T00:36:34.437Z,99.90
2019-02-20T00:39:03.837Z,99.90
2019-02-20T00:41:32.335Z,99.90
2019-02-20T00:44:05.407Z,99.90
2019-02-20T00:46:35.504Z,99.90
2019-02-20T00:49:05.709Z,99.90
2019-02-20T00:51:41.777Z,99.90
2019-02-20T00:54:10.261Z,99.90
2019-02-20T00:56:38.746Z,99.90
2019-02-20T00:59:07.219Z,99.90
2019-02-20T01:01:35.707Z,99.90
2019-02-20T01:04:04.713Z,99.90
2019-02-20T01:06:33.190Z,99.90
2019-02-20T01:09:01.817Z,99.90
2019-02-20T01:11:30.289Z,99.90
2019-02-20T01:13:59.116Z,99.90
2019-02-20T01:16:27.617Z,99.90
2019-02-20T01:18:56.105Z,99.90
2019-02-20T01:21:24.881Z,99.90
2019-02-20T01:23:58.356Z,99.90
2019-02-20T01:26:26.848Z,99.90
2019-02-20T01:28:55.311Z,99.90
2019-02-20T01:31:23.795Z,99.90
2019-02-20T01:33:52.341Z,99.90
2019-02-20T01:36:20.801Z,99.90
2019-02-20T01:38:49.306Z,99.90
2019-02-20T01:41:17.762Z,99.90
2019-02-20T01:43:46.233Z,99.90
2019-02-20T01:46:14.741Z,99.90
2019-02-20T01:48:43.196Z,99.90
2019-02-20T01:51:11.661Z,99.90
2019-02-20T01:53:40.146Z,99.90
2019-02-20T01:56:08.607Z,99.90
2019-02-20T01:58:37.143Z,99.90
2019-02-20T02:01:05.753Z,99.90
2019-02-20T02:03:34.291Z,99.90
2019-02-20T02:06:02.793Z,99.90
2019-02-20T02:08:31.268Z,99.90
2019-02-20T02:10:59.768Z,99.90
2019-02-20T02:13:28.448Z,99.90
2019-02-20T02:15:56.958Z,99.90
2019-02-20T02:18:25.516Z,99.90
2019-02-20T02:20:54.088Z,99.90
2019-02-20T02:23:22.544Z,99.90
2019-02-20T02:25:51.057Z,99.90
2019-02-20T02:28:19.557Z,99.90
2019-02-20T02:30:48.025Z,99.90
2019-02-20T02:33:16.608Z,99.90
2019-02-20T02:35:45.070Z,99.90
2019-02-20T02:38:13.550Z,99.90
2019-02-20T02:40:42.059Z,99.90
2019-02-20T02:43:10.553Z,99.90
2019-02-20T02:45:39.088Z,99.90
2019-02-20T02:48:07.608Z,99.90
2019-02-20T02:50:36.345Z,99.90
2019-02-20T02:53:04.863Z,99.90
2019-02-20T02:55:33.329Z,99.90
2019-02-20T02:58:01.822Z,99.90
2019-02-20T03:00:30.313Z,99.90
2019-02-20T03:02:58.781Z,99.90
2019-02-20T03:05:27.262Z,99.90
2019-02-20T03:07:55.752Z,99.90
2019-02-20T03:10:24.242Z,99.90
2019-02-20T03:12:52.698Z,99.90
2019-02-20T03:15:21.193Z,99.90
2019-02-20T03:17:49.690Z,99.90
2019-02-20T03:20:18.129Z,99.90
2019-02-20T03:22:46.672Z,99.90
2019-02-20T03:25:15.494Z,99.90
2019-02-20T03:27:43.972Z,99.90
2019-02-20T03:30:12.498Z,99.90
2019-02-20T03:32:41.081Z,99.90
2019-02-20T03:35:09.675Z,99.90
2019-02-20T03:37:38.150Z,99.90
2019-02-20T03:40:07.953Z,99.90
2019-02-20T03:42:36.527Z,99.90
2019-02-20T03:45:07.093Z,99.90
2019-02-20T03:47:35.590Z,99.90
2019-02-20T03:50:04.781Z,99.90
2019-02-20T03:52:33.268Z,99.90
2019-02-20T03:55:01.804Z,99.90
2019-02-20T03:57:30.297Z,99.90
2019-02-20T03:59:58.949Z,99.90
2019-02-20T04:02:27.466Z,99.90
2019-02-20T04:04:56.081Z,99.90
2019-02-20T04:07:24.673Z,99.90
2019-02-20T04:09:53.208Z,99.90
2019-02-20T04:12:21.667Z,99.90
2019-02-20T04:14:50.287Z,99.90
2019-02-20T04:17:18.823Z,99.90
2019-02-20T04:19:47.341Z,99.90
2019-02-20T04:22:17.958Z,99.90
2019-02-20T04:24:46.516Z,99.90
2019-02-20T04:27:14.994Z,99.90
2019-02-20T04:29:43.509Z,99.90
2019-02-20T04:32:11.993Z,99.90
2019-02-20T04:34:40.483Z,99.90
2019-02-20T04:37:09.064Z,99.90
2019-02-20T04:39:37.533Z,99.90
2019-02-20T04:42:06.025Z,99.90
2019-02-20T04:44:34.558Z,99.90
2019-02-20T04:47:03.053Z,99.90
2019-02-20T04:49:31.542Z,99.90
2019-02-20T04:52:00.014Z,99.90
2019-02-20T04:54:28.508Z,99.90
2019-02-20T04:56:57.009Z,99.90
2019-02-20T04:59:25.477Z,99.90
2019-02-20T05:01:53.955Z,99.90
2019-02-20T05:04:22.413Z,99.90
2019-02-20T05:06:50.913Z,99.90
2019-02-20T05:09:19.476Z,99.90
2019-02-20T05:11:47.967Z,99.90
2019-02-20T05:14:16.525Z,99.90
2019-02-20T05:16:45.017Z,99.90
2019-02-20T05:19:13.547Z,99.90
2019-02-20T05:21:42.218Z,99.90
2019-02-20T05:24:10.777Z,99.90
2019-02-20T05:26:39.345Z,99.90
2019-02-20T05:29:08.181Z,99.90
2019-02-20T05:31:36.708Z,99.90
2019-02-20T05:34:05.279Z,99.90
2019-02-20T05:36:33.813Z,99.90
2019-02-20T05:39:02.285Z,99.90
2019-02-20T05:41:30.781Z,99.90
2019-02-20T05:43:59.355Z,99.90
2019-02-20T05:46:27.879Z,99.90
2019-02-20T05:48:56.450Z,99.90
2019-02-20T05:51:24.981Z,99.90
2019-02-20T05:53:53.489Z,99.90
2019-02-20T05:56:21.973Z,99.90
2019-02-20T05:58:50.647Z,99.90
2019-02-20T06:01:19.264Z,99.90
2019-02-20T06:03:47.785Z,99.90
2019-02-20T06:06:16.268Z,99.90
2019-02-20T06:08:44.775Z,99.90
2019-02-20T06:13:43.298Z,99.90
2019-02-20T06:16:11.779Z,99.90
2019-02-20T06:18:40.421Z,99.90
2019-02-20T06:21:08.917Z,99.90
2019-02-20T06:26:05.578Z,99.90
2019-02-20T06:28:34.278Z,99.90
2019-02-20T06:31:02.858Z,99.90
2019-02-20T06:33:31.369Z,99.90
2019-02-20T06:36:00.007Z,99.90
2019-02-20T06:38:28.592Z,99.90
2019-02-20T06:40:57.149Z,99.90
2019-02-20T06:43:25.626Z,99.90
2019-02-20T06:45:54.141Z,99.90
2019-02-20T06:48:22.722Z,99.90
2019-02-20T06:50:51.204Z,99.90
2019-02-20T06:53:19.676Z,99.90
2019-02-20T06:55:48.142Z,99.90
2019-02-20T06:58:16.633Z,99.90
2019-02-20T07:00:45.203Z,99.90
2019-02-20T07:03:13.673Z,99.90
2019-02-20T07:05:42.217Z,99.90
2019-02-20T07:08:16.344Z,99.90
2019-02-20T07:11:11.895Z,99.90
2019-02-20T07:13:55.650Z,99.90
2019-02-20T07:16:46.522Z,99.90
2019-02-20T07:19:24.026Z,99.90
2019-02-20T07:22:04.176Z,99.90
2019-02-20T07:24:41.371Z,99.90
2019-02-20T07:27:18.633Z,99.90
2019-02-20T07:30:01.305Z,99.90
2019-02-20T07:32:30.229Z,99.90
2019-02-20T07:34:58.721Z,99.90
2019-02-20T07:37:27.226Z,99.90
2019-02-20T07:39:57.309Z,99.90
2019-02-20T07:42:26.167Z,99.90
2019-02-20T07:44:59.676Z,99.90
2019-02-20T07:47:28.308Z,99.90
2019-02-20T07:49:56.792Z,99.90
2019-02-20T07:52:25.286Z,99.90
2019-02-20T07:54:53.860Z,99.90
2019-02-20T07:57:22.409Z,99.90
2019-02-20T07:59:50.984Z,99.90
2019-02-20T08:02:19.464Z,99.90
2019-02-20T08:04:47.941Z,99.90
2019-02-20T08:07:16.440Z,99.90
2019-02-20T08:09:44.931Z,99.90
2019-02-20T08:12:13.400Z,99.90
2019-02-20T08:14:41.913Z,99.90
2019-02-20T08:17:10.556Z,99.90
2019-02-20T08:19:39.040Z,99.90
2019-02-20T08:22:07.676Z,99.90
2019-02-20T08:24:41.092Z,99.90
2019-02-20T08:29:37.809Z,99.90
2019-02-20T08:32:06.278Z,99.90
2019-02-20T08:41:59.349Z,99.90
2019-02-20T08:44:28.072Z,99.90
2019-02-20T08:46:56.629Z,99.90
2019-02-20T08:49:25.145Z,99.90
2019-02-20T08:51:53.638Z,99.90
2019-02-20T08:54:22.101Z,99.90
2019-02-20T08:56:50.618Z,99.90
2019-02-20T08:59:19.080Z,99.90
2019-02-20T09:01:47.597Z,99.90
2019-02-20T09:04:16.142Z,99.90
2019-02-20T09:06:44.692Z,99.90
2019-02-20T09:09:13.253Z,99.90
2019-02-20T09:11:41.733Z,99.90
2019-02-20T09:14:10.188Z,99.90
2019-02-20T09:16:38.749Z,99.90
2019-02-20T09:19:07.343Z,99.90
2019-02-20T09:21:35.887Z,99.90
2019-02-20T09:24:04.455Z,99.90
2019-02-20T09:26:32.937Z,99.90
2019-02-20T09:29:01.410Z,99.90
2019-02-20T09:31:29.961Z,99.90
2019-02-20T09:33:58.464Z,99.90
2019-02-20T09:36:27.828Z,99.90
2019-02-20T09:38:56.353Z,99.90
2019-02-20T09:41:24.885Z,99.90
2019-02-20T09:43:53.546Z,99.90
2019-02-20T09:46:22.068Z,99.90
2019-02-20T09:48:50.615Z,99.90
2019-02-20T09:51:19.131Z,99.90
2019-02-20T09:53:47.660Z,99.90
2019-02-20T09:56:16.275Z,99.90
2019-02-20T09:58:44.864Z,99.90
2019-02-20T10:01:13.337Z,99.90
2019-02-20T10:03:41.829Z,99.90
2019-02-20T10:06:10.305Z,99.90
2019-02-20T10:08:38.779Z,99.90
2019-02-20T10:11:07.293Z,99.90
2019-02-20T10:13:35.744Z,99.90
2019-02-20T10:16:09.138Z,99.90
2019-02-20T10:18:37.635Z,99.90
2019-02-20T10:21:06.277Z,99.90
2019-02-20T10:23:34.838Z,99.90
2019-02-20T10:26:03.403Z,99.90
2019-02-20T10:28:31.844Z,99.90
2019-02-20T10:31:00.305Z,99.90
2019-02-20T10:33:28.796Z,99.30
2019-02-20T10:35:57.281Z,98.10
2019-02-20T10:38:25.778Z,96.40
2019-02-20T10:40:54.350Z,97.30
2019-02-20T10:43:22.872Z,97.40
2019-02-20T10:45:51.364Z,98.70
2019-02-20T10:48:19.844Z,98.10
2019-02-20T10:50:48.417Z,95.40
2019-02-20T10:53:16.908Z,94.70
2019-02-20T10:55:45.390Z,92.70
2019-02-20T10:58:13.881Z,92.80
2019-02-20T11:00:42.461Z,93.10
2019-02-20T11:03:11.020Z,93.60
2019-02-20T11:05:39.592Z,94.80
2019-02-20T11:08:08.147Z,95.80
2019-02-20T11:10:36.661Z,94.50
2019-02-20T11:13:05.167Z,93.60
2019-02-20T11:18:01.870Z,94.10
2019-02-20T11:20:30.354Z,94.40
2019-02-20T11:22:58.926Z,93.80
2019-02-20T11:25:27.401Z,93.20
2019-02-20T11:27:55.869Z,92.90
2019-02-20T11:30:28.653Z,91.40
2019-02-20T11:32:57.129Z,90.80
2019-02-20T11:35:25.604Z,90.30
2019-02-20T11:37:54.174Z,89.80
2019-02-20T11:40:22.767Z,89.80
2019-02-20T11:42:51.321Z,89.70
2019-02-20T11:45:19.869Z,87.00
2019-02-20T11:47:48.372Z,87.40
2019-02-20T11:50:16.925Z,85.20
2019-02-20T11:52:45.461Z,85.10
2019-02-20T11:55:15.581Z,82.60
2019-02-20T11:57:44.114Z,80.20
2019-02-20T12:00:20.191Z,75.90
2019-02-20T12:02:48.667Z,76.10
2019-02-20T12:05:17.148Z,74.30
2019-02-20T12:07:45.656Z,73.50
2019-02-20T12:10:18.275Z,72.20
2019-02-20T12:12:46.832Z,71.10
2019-02-20T12:15:15.608Z,70.80
2019-02-20T12:17:44.210Z,69.50
2019-02-20T12:20:13.001Z,68.40
2019-02-20T12:22:41.489Z,67.60
2019-02-20T12:25:11.020Z,66.90
2019-02-20T12:27:39.562Z,63.50
2019-02-20T12:30:12.458Z,63.60
2019-02-20T12:32:41.012Z,62.20
2019-02-20T12:35:09.909Z,61.40
2019-02-20T12:37:38.709Z,60.00
2019-02-20T12:40:09.113Z,57.40
2019-02-20T12:42:37.586Z,56.30
2019-02-20T12:45:08.602Z,57.60
2019-02-20T12:47:37.169Z,59.70
2019-02-20T12:50:08.881Z,59.50
2019-02-20T12:52:37.357Z,57.90
2019-02-20T12:55:07.200Z,58.20
2019-02-20T12:57:35.752Z,57.10
2019-02-20T13:00:07.380Z,57.50
2019-02-20T13:02:36.142Z,56.40
2019-02-20T13:05:06.413Z,56.30
2019-02-20T13:07:34.897Z,56.40
2019-02-20T13:10:03.473Z,56.40
2019-02-20T13:12:32.041Z,55.90
2019-02-20T13:15:00.529Z,56.10
2019-02-20T13:17:29.029Z,55.00
2019-02-20T13:19:57.509Z,56.40
2019-02-20T13:22:26.004Z,57.70
2019-02-20T13:24:54.479Z,58.60
2019-02-20T13:27:23.222Z,57.80
2019-02-20T13:29:51.940Z,56.90
2019-02-20T13:32:20.460Z,56.10
2019-02-20T13:34:49.004Z,56.40
2019-02-20T13:37:17.684Z,56.80
2019-02-20T13:39:46.281Z,56.80
2019-02-20T13:42:15.371Z,58.00
2019-02-20T13:44:43.919Z,58.00
2019-02-20T13:47:13.557Z,56.70
2019-02-20T13:49:42.142Z,57.40
2019-02-20T13:52:10.759Z,58.30
2019-02-20T13:54:39.420Z,57.50
2019-02-20T13:57:07.993Z,58.00
2019-02-20T13:59:37.072Z,57.70
2019-02-20T14:02:05.642Z,58.80
2019-02-20T14:04:34.189Z,59.20
2019-02-20T14:07:02.842Z,59.70
2019-02-20T14:09:31.485Z,60.80
2019-02-20T14:12:00.111Z,61.90
2019-02-20T14:14:28.687Z,62.90
2019-02-20T14:16:57.352Z,63.00
2019-02-20T14:19:26.307Z,63.30
2019-02-20T14:21:54.811Z,64.30
2019-02-20T14:24:23.372Z,63.80
2019-02-20T14:26:51.910Z,63.00
2019-02-20T14:29:20.456Z,64.40
2019-02-20T14:31:49.679Z,64.60
2019-02-20T14:34:18.310Z,64.40
2019-02-20T14:36:46.884Z,64.40
2019-02-20T14:39:15.441Z,64.60
2019-02-20T14:41:44.010Z,65.40
2019-02-20T14:44:12.583Z,64.80
2019-02-20T14:46:41.148Z,66.00
2019-02-20T14:49:09.920Z,67.40
2019-02-20T14:51:40.112Z,65.60
2019-02-20T14:54:08.673Z,66.20
2019-02-20T14:56:37.269Z,65.40
2019-02-20T14:59:05.812Z,65.40
2019-02-20T15:01:34.377Z,65.10
2019-02-20T15:04:02.891Z,65.90
2019-02-20T15:06:31.547Z,66.50
2019-02-20T15:09:00.138Z,67.60
2019-02-20T15:11:28.699Z,68.20
2019-02-20T15:13:57.261Z,69.90
2019-02-20T15:16:25.845Z,71.10
2019-02-20T15:18:54.408Z,72.00
2019-02-20T15:21:23.560Z,73.20
2019-02-20T15:23:52.130Z,73.60
2019-02-20T15:26:20.678Z,77.10
2019-02-20T15:28:49.242Z,79.60
2019-02-20T15:31:17.829Z,82.90
2019-02-20T15:33:46.377Z,87.30
2019-02-20T15:36:15.038Z,90.10
2019-02-20T15:38:44.401Z,91.10
2019-02-20T15:41:12.981Z,91.60
2019-02-20T15:43:41.727Z,91.30
2019-02-20T15:46:10.267Z,91.70
2019-02-20T15:48:38.828Z,92.10
2019-02-20T15:51:07.317Z,93.80
2019-02-20T15:53:35.872Z,93.80
2019-02-20T15:56:04.516Z,93.50
2019-02-20T15:58:33.097Z,93.20
2019-02-20T16:01:01.709Z,93.10
2019-02-20T16:03:30.281Z,92.70
2019-02-20T16:05:58.823Z,94.50
2019-02-20T16:08:27.390Z,96.50
2019-02-20T16:10:55.945Z,98.00
2019-02-20T16:13:24.490Z,99.90
2019-02-20T16:15:58.004Z,99.90
2019-02-20T16:18:26.573Z,99.90
2019-02-20T16:20:55.197Z,99.90
2019-02-20T16:23:23.776Z,99.90
2019-02-20T16:25:52.345Z,99.90
2019-02-20T16:28:21.029Z,99.90
2019-02-20T16:30:49.588Z,99.90
2019-02-20T16:33:18.170Z,99.90
2019-02-20T16:35:48.356Z,99.90
2019-02-20T16:38:16.933Z,99.90
2019-02-20T16:40:45.568Z,99.90
2019-02-20T16:43:14.573Z,99.90
2019-02-20T16:45:43.109Z,99.90
2019-02-20T16:48:11.829Z,99.90
2019-02-20T16:50:40.401Z,99.90
2019-02-20T16:53:08.958Z,99.90
2019-02-20T16:55:37.610Z,99.90
2019-02-20T16:58:06.388Z,99.90
2019-02-20T17:00:35.276Z,99.90
2019-02-20T17:03:04.005Z,99.90
2019-02-20T17:05:32.702Z,99.90
2019-02-20T17:08:01.405Z,99.90
2019-02-20T17:10:30.098Z,99.90
2019-02-20T17:12:58.653Z,99.90
2019-02-20T17:15:27.312Z,99.90
2019-02-20T17:17:55.973Z,99.90
2019-02-20T17:20:24.552Z,99.90
2019-02-20T17:22:53.116Z,99.90
2019-02-20T17:25:21.811Z,99.90
2019-02-20T17:27:50.428Z,99.90
2019-02-20T17:30:19.882Z,99.90
2019-02-20T17:32:48.935Z,99.90
2019-02-20T17:35:17.587Z,99.90
2019-02-20T17:37:46.142Z,99.90
2019-02-20T17:40:16.128Z,99.90
2019-02-20T17:42:44.749Z,99.90
2019-02-20T17:45:15.644Z,99.90
2019-02-20T17:47:44.702Z,99.90
2019-02-20T17:50:18.290Z,99.90
2019-02-20T17:52:46.901Z,99.90
2019-02-20T17:55:17.344Z,99.90
2019-02-20T17:57:45.888Z,99.90
2019-02-20T18:00:17.062Z,99.90
2019-02-20T18:02:45.601Z,99.90
2019-02-20T18:05:14.466Z,99.90
2019-02-20T18:07:50.826Z,99.90
2019-02-20T18:10:13.321Z,99.90
2019-02-20T18:12:41.793Z,99.90
2019-02-20T18:15:14.798Z,99.90
2019-02-20T18:17:43.344Z,99.90
2019-02-20T18:20:12.273Z,99.90
2019-02-20T18:22:40.736Z,99.90
2019-02-20T18:25:10.855Z,99.90
2019-02-20T18:27:39.349Z,99.90
2019-02-20T18:30:15.370Z,99.90
2019-02-20T18:32:43.949Z,99.90
2019-02-20T18:35:17.558Z,99.90
2019-02-20T18:37:46.115Z,99.90
2019-02-20T18:40:17.215Z,99.90
2019-02-20T18:42:45.738Z,99.90
2019-02-20T18:45:15.352Z,99.90
2019-02-20T18:47:43.942Z,99.90
2019-02-20T18:50:13.672Z,99.90
2019-02-20T18:52:42.325Z,99.90
2019-02-20T18:55:12.613Z,99.90
2019-02-20T18:57:41.186Z,99.90
2019-02-20T19:00:12.462Z,99.90
2019-02-20T19:02:40.985Z,99.90
2019-02-20T19:05:10.863Z,99.90
2019-02-20T19:07:39.460Z,99.90
2019-02-20T19:10:28.469Z,99.90
2019-02-20T19:13:11.904Z,99.90
2019-02-20T19:15:55.524Z,99.90
2019-02-20T19:18:39.069Z,99.90
2019-02-20T19:21:10.724Z,99.90
2019-02-20T19:24:08.913Z,99.90
2019-02-20T19:26:43.385Z,99.90
2019-02-20T19:29:31.248Z,99.90
2019-02-20T19:32:17.923Z,99.90
2019-02-20T19:34:55.323Z,99.90
2019-02-20T19:37:32.588Z,99.90
2019-02-20T19:40:09.384Z,99.90
2019-02-20T19:42:46.149Z,99.90
2019-02-20T19:45:49.629Z,99.90
2019-02-20T19:48:29.989Z,99.90
2019-02-20T19:51:21.826Z,99.90
2019-02-20T19:54:09.519Z,99.90
2019-02-20T19:56:41.142Z,99.90
2019-02-20T19:59:12.751Z,99.90
2019-02-20T20:02:27.525Z,99.90
2019-02-20T20:04:59.504Z,99.90
2019-02-20T20:07:50.783Z,99.90
2019-02-20T20:10:43.213Z,99.90
2019-02-20T20:13:32.876Z,99.90
2019-02-20T20:16:10.529Z,99.90
2019-02-20T20:18:56.955Z,99.90
2019-02-20T20:21:37.455Z,99.90
2019-02-20T20:24:22.717Z,99.90
2019-02-20T20:27:10.757Z,99.90
2019-02-20T20:30:02.012Z,99.90
2019-02-20T20:32:36.402Z,99.90
2019-02-20T20:35:37.787Z,99.90
2019-02-20T20:38:44.462Z,99.90
2019-02-20T20:41:27.681Z,99.90
2019-02-20T20:44:28.444Z,99.90
2019-02-20T20:47:05.344Z,99.90
2019-02-20T20:49:36.943Z,99.90
2019-02-20T20:52:26.460Z,99.90
2019-02-20T20:55:17.569Z,99.90
2019-02-20T20:58:06.893Z,99.90
2019-02-20T21:01:10.253Z,99.90
2019-02-20T21:03:58.437Z,99.90
2019-02-20T21:06:41.157Z,99.90
2019-02-20T21:09:12.718Z,99.90
2019-02-20T21:11:59.106Z,99.90
2019-02-20T21:14:42.604Z,99.90
2019-02-20T21:17:28.441Z,99.90
2019-02-20T21:20:11.173Z,99.90
2019-02-20T21:22:57.492Z,99.90
2019-02-20T21:25:32.273Z,99.90
2019-02-20T21:28:28.093Z,99.90
2019-02-20T21:31:16.136Z,99.90
2019-02-20T21:33:53.533Z,99.90
2019-02-20T21:36:27.885Z,99.90
2019-02-20T21:39:11.519Z,99.90
2019-02-20T21:42:09.677Z,99.90
2019-02-20T21:44:49.945Z,99.90
2019-02-20T21:47:27.152Z,99.90
2019-02-20T21:50:13.672Z,99.90
2019-02-20T21:52:53.777Z,99.90
2019-02-20T21:55:54.093Z,99.90
2019-02-20T21:58:28.631Z,99.90
2019-02-20T22:01:08.739Z,99.90
2019-02-20T22:04:13.584Z,99.90
2019-02-20T22:07:06.316Z,99.90
2019-02-20T22:09:57.321Z,99.90
2019-02-20T22:12:20.022Z,99.90
2019-02-20T22:15:00.327Z,99.90
2019-02-20T22:17:34.801Z,99.90
2019-02-20T22:20:21.185Z,99.90
2019-02-20T22:22:58.628Z,99.90
2019-02-20T22:25:33.194Z,99.90
2019-02-20T22:28:10.653Z,99.90
2019-02-20T22:30:54.204Z,99.90
2019-02-20T22:33:34.741Z,99.90
2019-02-20T22:36:18.476Z,99.90
2019-02-20T22:38:55.568Z,99.90
2019-02-20T22:41:44.384Z,99.90
2019-02-20T22:44:24.954Z,99.90
2019-02-20T22:46:56.497Z,99.90
2019-02-20T22:49:30.762Z,99.90
2019-02-20T22:52:08.469Z,99.90
2019-02-20T22:54:42.765Z,99.90
2019-02-20T22:57:37.869Z,99.90
2019-02-20T23:00:43.036Z,99.90
2019-02-20T23:03:34.036Z,99.90
2019-02-20T23:06:28.477Z,99.90
2019-02-20T23:09:00.240Z,99.90
2019-02-20T23:11:31.886Z,99.90
2019-02-20T23:14:24.025Z,99.90
2019-02-20T23:16:52.502Z,99.90
2019-02-20T23:19:20.964Z,99.90
2019-02-20T23:21:49.452Z,99.90
2019-02-20T23:24:17.958Z,99.90
2019-02-20T23:26:46.439Z,99.90
2019-02-20T23:29:14.900Z,99.90
2019-02-20T23:31:43.463Z,99.90
2019-02-20T23:34:11.926Z,99.90
2019-02-20T23:36:40.401Z,99.90
2019-02-20T23:39:09.044Z,99.90
2019-02-20T23:41:37.509Z,99.90
2019-02-20T23:44:06.071Z,99.90
2019-02-20T23:46:34.782Z,99.90
2019-02-20T23:49:03.257Z,99.90
2019-02-20T23:51:31.739Z,99.90
2019-02-20T23:54:00.208Z,99.90
2019-02-20T23:56:30.404Z,99.90
2019-02-20T23:58:58.921Z,99.90
